Time,TemperatureF,DewpointF,PressureIn,WindDirection,WindDirectionDegrees,WindSpeedMPH,WindSpeedGustMPH,Humidity,HourlyPrecipIn,Conditions,Clouds,dailyrainin,SoftwareType,DateUTC
2016-07-28 00:03:00,67.8,62.0,29.89,North,9,0.0,0.0,82,0.00,,,0.00,weatherlink.com 1.10,2016-07-28 04:03:00,
2016-07-28 00:18:00,65.8,61.0,29.89,North,9,0.0,0.0,84,0.00,,,0.00,weatherlink.com 1.10,2016-07-28 04:18:00,
2016-07-28 00:33:00,65.3,61.0,29.88,North,9,0.0,0.0,85,0.00,,,0.00,weatherlink.com 1.10,2016-07-28 04:33:00,
2016-07-28 00:48:00,65.8,61.0,29.88,North,9,0.0,0.0,84,0.00,,,0.00,weatherlink.com 1.10,2016-07-28 04:48:00,
2016-07-28 01:03:00,66.7,60.0,29.87,North,9,0.0,0.0,79,0.00,,,0.00,weatherlink.com 1.10,2016-07-28 05:03:00,
2016-07-28 01:18:00,67.5,59.0,29.87,North,9,0.0,0.0,74,0.00,,,0.00,weatherlink.com 1.10,2016-07-28 05:18:00,
2016-07-28 01:33:00,67.2,59.0,29.87,North,9,0.0,0.0,76,0.00,,,0.00,weatherlink.com 1.10,2016-07-28 05:33:00,
2016-07-28 01:48:00,66.5,60.0,29.87,SSW,208,0.0,0.0,80,0.00,,,0.00,weatherlink.com 1.10,2016-07-28 05:48:00,
2016-07-28 02:03:00,65.3,60.0,29.86,SSW,208,0.0,0.0,82,0.00,,,0.00,weatherlink.com 1.10,2016-07-28 06:03:00,
2016-07-28 02:18:00,63.6,59.0,29.86,SSW,208,0.0,0.0,84,0.00,,,0.00,weatherlink.com 1.10,2016-07-28 06:18:00,
2016-07-28 02:33:00,64.5,59.0,29.86,SSW,208,0.0,0.0,81,0.00,,,0.00,weatherlink.com 1.10,2016-07-28 06:33:00,
2016-07-28 02:48:00,64.3,58.0,29.85,SSW,208,0.0,0.0,81,0.00,,,0.00,weatherlink.com 1.10,2016-07-28 06:48:00,
2016-07-28 03:03:00,63.8,59.0,29.85,SSE,158,0.0,0.0,83,0.00,,,0.00,weatherlink.com 1.10,2016-07-28 07:03:00,
2016-07-28 03:18:00,62.6,58.0,29.85,SSE,158,0.0,0.0,86,0.00,,,0.00,weatherlink.com 1.10,2016-07-28 07:18:00,
2016-07-28 03:33:00,65.0,59.0,29.85,South,174,0.0,0.0,81,0.00,,,0.00,weatherlink.com 1.10,2016-07-28 07:33:00,
2016-07-28 03:48:00,66.9,59.0,29.85,South,174,0.0,0.0,76,0.00,,,0.00,weatherlink.com 1.10,2016-07-28 07:48:00,
2016-07-28 04:03:00,66.1,59.0,29.84,SSE,162,0.0,3.0,78,0.00,,,0.00,weatherlink.com 1.10,2016-07-28 08:03:00,
2016-07-28 04:19:00,65.0,59.0,29.84,SSE,162,0.0,2.0,80,0.00,,,0.00,weatherlink.com 1.10,2016-07-28 08:19:00,
2016-07-28 04:33:00,65.5,59.0,29.84,SSE,162,1.0,2.0,79,0.00,,,0.00,weatherlink.com 1.10,2016-07-28 08:33:00,
2016-07-28 04:48:00,65.9,59.0,29.84,SSE,162,1.0,3.0,79,0.00,,,0.00,weatherlink.com 1.10,2016-07-28 08:48:00,
2016-07-28 05:03:00,66.1,59.0,29.84,SSE,161,2.0,3.0,79,0.00,,,0.00,weatherlink.com 1.10,2016-07-28 09:03:00,
2016-07-28 05:18:00,66.4,60.0,29.84,SSE,162,0.0,3.0,80,0.00,,,0.00,weatherlink.com 1.10,2016-07-28 09:18:00,
2016-07-28 05:33:00,65.7,60.0,29.84,SSE,162,0.0,0.0,81,0.00,,,0.00,weatherlink.com 1.10,2016-07-28 09:33:00,
2016-07-28 05:48:00,66.0,60.0,29.84,SSE,162,0.0,0.0,82,0.00,,,0.00,weatherlink.com 1.10,2016-07-28 09:48:00,
2016-07-28 06:03:00,65.6,60.0,29.84,SSE,165,0.0,0.0,83,0.00,,,0.00,weatherlink.com 1.10,2016-07-28 10:03:00,
2016-07-28 06:18:00,64.7,60.0,29.85,North,5,0.0,3.0,84,0.00,,,0.00,weatherlink.com 1.10,2016-07-28 10:18:00,
2016-07-28 06:33:00,64.8,60.0,29.85,North,5,0.0,0.0,85,0.00,,,0.00,weatherlink.com 1.10,2016-07-28 10:33:00,
2016-07-28 06:48:00,65.5,61.0,29.85,NNE,19,0.0,0.0,84,0.00,,,0.00,weatherlink.com 1.10,2016-07-28 10:48:00,
2016-07-28 07:03:00,65.2,61.0,29.85,NNE,19,0.0,0.0,85,0.00,,,0.00,weatherlink.com 1.10,2016-07-28 11:03:00,
2016-07-28 07:18:00,65.8,62.0,29.85,SE,145,4.0,5.0,86,0.00,,,0.00,weatherlink.com 1.10,2016-07-28 11:18:00,
2016-07-28 07:33:00,66.8,62.0,29.85,SE,139,0.0,5.0,85,0.00,,,0.00,weatherlink.com 1.10,2016-07-28 11:33:00,
2016-07-28 07:48:00,66.9,63.0,29.86,SSE,147,0.0,0.0,87,0.00,,,0.00,weatherlink.com 1.10,2016-07-28 11:48:00,
2016-07-28 08:03:00,67.6,63.0,29.86,SSE,147,0.0,0.0,86,0.00,,,0.00,weatherlink.com 1.10,2016-07-28 12:03:00,
2016-07-28 08:18:00,68.6,64.0,29.86,SSE,165,0.0,3.0,86,0.00,,,0.00,weatherlink.com 1.10,2016-07-28 12:18:00,
2016-07-28 08:33:00,69.3,64.0,29.86,SSE,165,0.0,0.0,84,0.00,,,0.00,weatherlink.com 1.10,2016-07-28 12:33:00,
2016-07-28 08:48:00,70.3,66.0,29.87,NE,39,0.0,0.0,85,0.00,,,0.00,weatherlink.com 1.10,2016-07-28 12:48:00,
2016-07-28 09:03:00,71.3,66.0,29.86,NE,39,0.0,0.0,84,0.00,,,0.00,weatherlink.com 1.10,2016-07-28 13:03:00,
2016-07-28 09:19:00,72.0,66.0,29.86,SSE,159,0.0,1.0,82,0.00,,,0.00,weatherlink.com 1.10,2016-07-28 13:19:00,
2016-07-28 09:34:00,73.7,66.0,29.86,South,180,4.0,6.0,78,0.00,,,0.00,weatherlink.com 1.10,2016-07-28 13:34:00,
2016-07-28 09:49:00,74.4,66.0,29.86,South,183,2.0,5.0,76,0.00,,,0.00,weatherlink.com 1.10,2016-07-28 13:49:00,
2016-07-28 10:04:00,75.0,66.0,29.85,SSE,168,3.0,6.0,73,0.00,,,0.00,weatherlink.com 1.10,2016-07-28 14:04:00,
2016-07-28 10:19:00,76.1,66.0,29.84,NNE,13,0.0,4.0,72,0.00,,,0.00,weatherlink.com 1.10,2016-07-28 14:19:00,
2016-07-28 10:34:00,78.7,68.0,29.84,ESE,104,0.0,0.0,70,0.00,,,0.00,weatherlink.com 1.10,2016-07-28 14:34:00,
2016-07-28 10:49:00,79.5,69.0,29.84,ESE,102,0.0,3.0,70,0.00,,,0.00,weatherlink.com 1.10,2016-07-28 14:49:00,
2016-07-28 11:04:00,79.2,67.0,29.84,SSE,168,3.0,3.0,67,0.00,,,0.00,weatherlink.com 1.10,2016-07-28 15:04:00,
2016-07-28 11:19:00,77.4,66.0,29.84,SSE,163,0.0,6.0,68,0.00,,,0.00,weatherlink.com 1.10,2016-07-28 15:19:00,
2016-07-28 11:34:00,78.1,67.0,29.83,SSE,152,0.0,4.0,69,0.00,,,0.00,weatherlink.com 1.10,2016-07-28 15:34:00,
2016-07-28 11:49:00,80.2,68.0,29.83,SSE,157,1.0,4.0,67,0.00,,,0.00,weatherlink.com 1.10,2016-07-28 15:49:00,
2016-07-28 12:04:00,81.8,70.0,29.83,East,92,0.0,0.0,67,0.00,,,0.00,weatherlink.com 1.10,2016-07-28 16:04:00,
2016-07-28 12:19:00,82.4,69.0,29.83,NE,49,1.0,3.0,64,0.00,,,0.00,weatherlink.com 1.10,2016-07-28 16:19:00,
2016-07-28 12:34:00,82.7,68.0,29.82,SE,142,0.0,3.0,61,0.00,,,0.00,weatherlink.com 1.10,2016-07-28 16:34:00,
2016-07-28 12:49:00,82.8,67.0,29.82,SSE,156,1.0,4.0,60,0.00,,,0.00,weatherlink.com 1.10,2016-07-28 16:49:00,
2016-07-28 13:04:00,82.1,67.0,29.82,SSE,159,0.0,6.0,60,0.00,,,0.00,weatherlink.com 1.10,2016-07-28 17:04:00,
2016-07-28 13:19:00,82.9,69.0,29.82,SE,146,0.0,2.0,63,0.00,,,0.00,weatherlink.com 1.10,2016-07-28 17:19:00,
2016-07-28 13:34:00,83.1,68.0,29.82,SE,124,0.0,2.0,61,0.00,,,0.00,weatherlink.com 1.10,2016-07-28 17:34:00,
2016-07-28 13:53:00,83.3,66.0,29.81,East,81,0.0,3.0,57,0.00,,,0.00,weatherlink.com 1.10,2016-07-28 17:53:00,
2016-07-28 14:04:00,83.3,67.0,29.81,East,96,0.0,3.0,58,0.00,,,0.00,weatherlink.com 1.10,2016-07-28 18:04:00,
2016-07-28 14:19:00,84.1,68.0,29.80,SE,135,0.0,2.0,58,0.00,,,0.00,weatherlink.com 1.10,2016-07-28 18:19:00,